Time;durP1;ratioP1;P1;durP2;ratioP2;P2;SDS_P1;SDS_P2;PMS_P1;PMS_P2;Temp;Humidity;BMP_temperature;BMP_pressure;BME280_temperature;BME280_humidity;BME280_pressure;Samples;Min_cycle;Max_cycle;Signal;HPM_P1;HPM_P2
2023/08/03 00:00:36;;;;;;;11.20;7.28;;;;;;;28.27;100.00;100411.00;5094288;28;20032;-74
2023/08/03 00:03:21;;;;;;;11.90;7.90;;;;;;;28.06;100.00;100413.91;5095190;28;20028;-73
2023/08/03 00:06:07;;;;;;;8.88;7.25;;;;;;;28.09;100.00;100408.25;5094386;28;20103;-72
2023/08/03 00:08:54;;;;;;;11.40;7.72;;;;;;;27.95;100.00;100411.38;5094375;28;20136;-73
2023/08/03 00:11:39;;;;;;;10.63;7.45;;;;;;;27.78;100.00;100412.09;5094082;28;20024;-73
2023/08/03 00:14:25;;;;;;;10.30;7.30;;;;;;;28.05;100.00;100419.44;5094369;28;20035;-72
2023/08/03 00:17:11;;;;;;;7.93;7.13;;;;;;;27.98;100.00;100413.78;5094716;28;20074;-73
2023/08/03 00:19:57;;;;;;;9.15;7.40;;;;;;;27.96;100.00;100417.63;5095638;28;20044;-73
2023/08/03 00:22:46;;;;;;;8.32;6.78;;;;;;;27.74;100.00;100407.97;5095563;28;20034;-72
2023/08/03 00:25:31;;;;;;;9.38;7.40;;;;;;;27.74;100.00;100410.66;5099041;28;20050;-74
2023/08/03 00:28:20;;;;;;;10.52;7.18;;;;;;;27.62;100.00;100410.94;5098260;28;20031;-71
2023/08/03 00:31:06;;;;;;;8.50;7.32;;;;;;;27.76;100.00;100405.97;5084573;28;20047;-74
2023/08/03 00:33:51;;;;;;;11.50;7.28;;;;;;;27.64;100.00;100412.50;5100514;28;20055;-75
2023/08/03 00:36:38;;;;;;;9.30;7.50;;;;;;;27.33;100.00;100409.09;5100096;28;20032;-76
2023/08/03 00:39:24;;;;;;;9.98;7.30;;;;;;;27.10;100.00;100406.78;5083893;28;20032;-73
2023/08/03 00:42:10;;;;;;;8.30;7.10;;;;;;;27.17;100.00;100414.13;5083925;28;20028;-72
2023/08/03 00:44:55;;;;;;;9.82;7.63;;;;;;;27.11;100.00;100411.16;5098123;28;20042;-74
2023/08/03 00:47:41;;;;;;;8.65;7.57;;;;;;;27.09;100.00;100414.00;5098261;28;20051;-73
2023/08/03 00:50:27;;;;;;;10.05;7.80;;;;;;;27.14;100.00;100416.28;5097923;28;20031;-73
2023/08/03 00:53:13;;;;;;;8.18;7.28;;;;;;;27.17;100.00;100416.00;5097158;28;20020;-74
2023/08/03 00:55:59;;;;;;;9.30;7.60;;;;;;;27.34;100.00;100409.97;5083034;28;20396;-73
2023/08/03 00:58:44;;;;;;;8.65;7.47;;;;;;;26.93;100.00;100407.47;5097984;28;20035;-74
2023/08/03 01:01:30;;;;;;;10.10;7.50;;;;;;;27.36;100.00;100411.50;5097888;28;20047;-74
2023/08/03 01:04:16;;;;;;;8.95;7.65;;;;;;;27.48;100.00;100404.16;5082745;28;20372;-73
2023/08/03 01:07:02;;;;;;;9.60;7.75;;;;;;;27.21;100.00;100404.84;5098441;28;20035;-73
2023/08/03 01:09:48;;;;;;;8.55;7.60;;;;;;;27.19;100.00;100411.31;5098320;28;20023;-75
2023/08/03 01:12:34;;;;;;;10.50;7.68;;;;;;;27.18;100.00;100406.94;5097820;28;20032;-74
2023/08/03 01:15:20;;;;;;;9.77;8.15;;;;;;;27.21;100.00;100398.63;5097674;28;20015;-73
2023/08/03 01:18:06;;;;;;;10.23;8.13;;;;;;;27.22;100.00;100394.94;5097078;28;20035;-73
2023/08/03 01:20:52;;;;;;;10.15;8.05;;;;;;;27.01;100.00;100405.75;5082188;28;20574;-74
2023/08/03 01:23:38;;;;;;;10.40;7.47;;;;;;;27.09;100.00;100411.28;5097714;28;20424;-73
2023/08/03 01:26:24;;;;;;;12.60;8.13;;;;;;;27.48;100.00;100411.38;5097004;28;20161;-74
2023/08/03 01:29:11;;;;;;;12.38;8.23;;;;;;;27.33;100.00;100405.56;5097737;28;20034;-75
2023/08/03 01:31:59;;;;;;;11.73;8.00;;;;;;;26.89;100.00;100406.03;5096400;28;20366;-73
2023/08/03 01:34:44;;;;;;;9.93;8.25;;;;;;;27.27;100.00;100403.44;5095520;28;20051;-74
2023/08/03 01:37:33;;;;;;;9.55;8.40;;;;;;;27.20;100.00;100402.28;5082366;28;20081;-73
2023/08/03 01:40:18;;;;;;;12.57;8.77;;;;;;;27.06;100.00;100411.59;5097075;28;20060;-73
2023/08/03 01:43:04;;;;;;;11.27;8.75;;;;;;;27.08;100.00;100414.13;5096834;28;20052;-74
2023/08/03 01:45:50;;;;;;;11.32;9.25;;;;;;;27.19;100.00;100425.63;5097245;28;20027;-74
2023/08/03 01:48:36;;;;;;;12.77;9.57;;;;;;;27.10;100.00;100418.41;5100039;28;20034;-73
2023/08/03 01:51:21;;;;;;;15.07;9.18;;;;;;;26.89;100.00;100417.63;5111805;28;20024;-74
2023/08/03 01:54:09;;;;;;;11.50;9.10;;;;;;;26.82;100.00;100416.47;5097099;28;20028;-73
2023/08/03 01:56:55;;;;;;;12.18;9.02;;;;;;;26.58;100.00;100424.03;5096865;28;20028;-73
2023/08/03 01:59:41;;;;;;;12.77;9.15;;;;;;;26.49;100.00;100426.66;5096316;28;20020;-73
2023/08/03 02:02:27;;;;;;;12.90;9.05;;;;;;;26.42;100.00;100422.78;5096698;28;20024;-73
2023/08/03 02:05:12;;;;;;;17.00;9.80;;;;;;;26.79;100.00;100427.50;5097509;28;20102;-72
2023/08/03 02:08:00;;;;;;;12.43;9.10;;;;;;;26.86;100.00;100433.19;5087352;28;20032;-73
2023/08/03 02:10:46;;;;;;;13.65;9.57;;;;;;;26.96;100.00;100425.97;5106164;28;20032;-74
2023/08/03 02:13:33;;;;;;;12.35;9.23;;;;;;;26.93;100.00;100431.66;5096286;28;20341;-73
2023/08/03 02:16:18;;;;;;;12.18;8.77;;;;;;;26.72;100.00;100423.66;5082598;28;20365;-73
2023/08/03 02:19:04;;;;;;;11.73;9.07;;;;;;;26.53;100.00;100428.06;5096091;28;20511;-73
2023/08/03 02:21:50;;;;;;;11.73;8.90;;;;;;;26.61;100.00;100430.97;5096076;28;20046;-74
2023/08/03 02:24:36;;;;;;;12.70;8.23;;;;;;;26.53;100.00;100428.06;5095753;28;20452;-73
2023/08/03 02:27:21;;;;;;;10.70;8.43;;;;;;;26.58;100.00;100431.25;5082417;28;20097;-72
2023/08/03 02:30:09;;;;;;;11.75;8.88;;;;;;;26.70;100.00;100433.69;5096587;28;20470;-74
2023/08/03 02:32:54;;;;;;;11.90;8.20;;;;;;;26.51;100.00;100430.03;5095971;28;20027;-73
2023/08/03 02:35:40;;;;;;;13.23;8.05;;;;;;;26.51;100.00;100425.53;5082260;28;20023;-73
2023/08/03 02:38:26;;;;;;;13.15;8.45;;;;;;;26.15;100.00;100428.72;5096527;28;20027;-72
2023/08/03 02:41:12;;;;;;;10.45;8.25;;;;;;;26.35;100.00;100435.03;5095517;28;20360;-72
2023/08/03 02:43:58;;;;;;;12.60;8.90;;;;;;;26.26;100.00;100441.22;5095184;28;20089;-73
2023/08/03 02:46:44;;;;;;;12.52;8.82;;;;;;;26.23;100.00;100436.97;5097127;27;20019;-74
2023/08/03 02:49:29;;;;;;;23.77;9.75;;;;;;;26.26;100.00;100435.84;5095325;28;20452;-73
2023/08/03 02:52:15;;;;;;;23.73;9.73;;;;;;;26.03;100.00;100431.59;5095636;28;20028;-72
2023/08/03 02:55:01;;;;;;;22.85;9.65;;;;;;;26.21;100.00;100438.09;5095547;28;20031;-73
2023/08/03 02:57:48;;;;;;;13.63;8.48;;;;;;;26.29;100.00;100439.09;5095203;28;20024;-72
2023/08/03 03:00:34;;;;;;;18.88;8.63;;;;;;;26.41;100.00;100437.22;5095014;28;20028;-72
2023/08/03 03:03:20;;;;;;;15.02;8.88;;;;;;;26.57;100.00;100437.56;5095475;28;20060;-72
2023/08/03 03:06:06;;;;;;;10.75;8.55;;;;;;;26.62;100.00;100448.78;5095161;28;20453;-73
2023/08/03 03:08:51;;;;;;;13.60;8.27;;;;;;;26.62;100.00;100451.47;5095215;28;20509;-73
2023/08/03 03:11:37;;;;;;;11.88;8.52;;;;;;;26.22;100.00;100447.84;5094874;28;20471;-72
2023/08/03 03:14:23;;;;;;;12.60;8.88;;;;;;;26.41;100.00;100456.03;5095183;28;20471;-73
2023/08/03 03:17:09;;;;;;;10.48;8.40;;;;;;;26.09;100.00;100450.75;5095692;28;20059;-73
2023/08/03 03:19:54;;;;;;;11.35;8.77;;;;;;;26.33;100.00;100453.97;5096142;28;20090;-72
2023/08/03 03:22:40;;;;;;;13.23;9.90;;;;;;;26.18;100.00;100446.41;5095564;28;20028;-73
2023/08/03 03:25:26;;;;;;;16.23;8.80;;;;;;;26.15;100.00;100450.22;5095358;28;20024;-73
2023/08/03 03:28:13;;;;;;;12.13;9.02;;;;;;;26.54;100.00;100460.19;5095009;28;20048;-74
2023/08/03 03:30:58;;;;;;;12.27;8.75;;;;;;;26.70;100.00;100463.28;5093586;28;20036;-74
2023/08/03 03:33:44;;;;;;;15.95;9.10;;;;;;;26.13;100.00;100464.75;5094640;28;20028;-73
2023/08/03 03:36:30;;;;;;;19.25;9.07;;;;;;;26.30;100.00;100456.09;5094915;28;20039;-73
2023/08/03 03:39:16;;;;;;;11.85;8.85;;;;;;;25.90;100.00;100461.31;5094551;28;20027;-73
2023/08/03 03:42:02;;;;;;;19.77;10.27;;;;;;;25.94;100.00;100460.09;5094763;28;20043;-72
2023/08/03 03:44:47;;;;;;;14.40;9.40;;;;;;;25.99;100.00;100457.88;5094380;28;20034;-72
2023/08/03 03:47:33;;;;;;;16.02;8.88;;;;;;;26.01;100.00;100461.28;5094490;28;20467;-72
2023/08/03 03:50:19;;;;;;;17.80;9.90;;;;;;;26.38;100.00;100457.13;5094270;28;20405;-72
2023/08/03 03:53:04;;;;;;;17.05;10.00;;;;;;;26.58;100.00;100460.81;5096036;28;20326;-73
2023/08/03 03:55:50;;;;;;;12.18;9.20;;;;;;;25.82;100.00;100453.06;5094921;28;20518;-73
2023/08/03 03:58:36;;;;;;;16.95;9.88;;;;;;;26.14;100.00;100448.50;5093940;28;20047;-73
2023/08/03 04:01:22;;;;;;;13.63;9.73;;;;;;;25.82;100.00;100465.59;5079211;28;20028;-73
2023/08/03 04:04:07;;;;;;;13.05;10.50;;;;;;;26.48;100.00;100457.19;5095695;28;20021;-73
2023/08/03 04:06:53;;;;;;;13.30;9.60;;;;;;;26.40;100.00;100463.22;5095441;28;20099;-73
2023/08/03 04:09:39;;;;;;;13.02;10.35;;;;;;;26.44;100.00;100472.72;5096215;28;20085;-72
2023/08/03 04:12:24;;;;;;;12.90;9.63;;;;;;;26.57;100.00;100472.50;5093186;28;20024;-73
2023/08/03 04:15:10;;;;;;;14.38;10.02;;;;;;;26.71;100.00;100483.78;5095922;28;20118;-72
2023/08/03 04:17:56;;;;;;;13.80;10.57;;;;;;;26.56;100.00;100477.03;5093587;28;20035;-72
2023/08/03 04:20:41;;;;;;;14.00;9.73;;;;;;;26.80;100.00;100474.06;5093823;28;20349;-72
2023/08/03 04:23:27;;;;;;;13.02;9.75;;;;;;;26.89;100.00;100476.78;5093846;28;20428;-72
2023/08/03 04:26:13;;;;;;;14.05;9.95;;;;;;;26.72;100.00;100482.78;5094382;28;20448;-72
2023/08/03 04:28:58;;;;;;;12.07;10.13;;;;;;;26.91;100.00;100465.88;5094257;28;20448;-71
2023/08/03 04:31:44;;;;;;;12.52;10.10;;;;;;;26.80;100.00;100479.44;5093868;28;20039;-72
2023/08/03 04:34:30;;;;;;;15.85;11.20;;;;;;;26.58;100.00;100476.94;5093987;28;20121;-72
2023/08/03 04:37:16;;;;;;;17.60;10.85;;;;;;;26.66;100.00;100471.72;5092604;28;20040;-73
2023/08/03 04:40:03;;;;;;;14.75;10.70;;;;;;;26.69;100.00;100477.69;5094108;28;20107;-72
2023/08/03 04:42:49;;;;;;;15.35;11.10;;;;;;;26.78;100.00;100484.97;5092980;28;20036;-73
2023/08/03 04:45:35;;;;;;;16.92;10.88;;;;;;;27.00;100.00;100487.44;5093660;28;20027;-73
2023/08/03 04:48:21;;;;;;;17.88;11.15;;;;;;;26.90;100.00;100483.88;5093819;28;20500;-72
2023/08/03 04:51:07;;;;;;;15.75;10.25;;;;;;;26.98;100.00;100494.81;5093890;28;20027;-73
2023/08/03 04:53:53;;;;;;;19.15;11.75;;;;;;;26.81;100.00;100497.28;5079781;28;20035;-72
2023/08/03 04:56:39;;;;;;;16.58;10.48;;;;;;;26.76;100.00;100499.53;5093390;28;20115;-73
2023/08/03 04:59:24;;;;;;;16.95;12.70;;;;;;;26.93;100.00;100494.34;5093864;28;20452;-73
2023/08/03 05:02:10;;;;;;;15.20;12.15;;;;;;;26.72;100.00;100490.84;5094062;28;20040;-73
2023/08/03 05:04:56;;;;;;;15.32;11.60;;;;;;;27.03;100.00;100492.56;5104027;28;20100;-73
2023/08/03 05:07:41;;;;;;;13.25;10.68;;;;;;;26.82;100.00;100493.59;5115103;28;20043;-71
2023/08/03 05:10:27;;;;;;;22.42;11.60;;;;;;;26.93;100.00;100497.03;5098798;28;20031;-72
2023/08/03 05:13:13;;;;;;;17.17;11.30;;;;;;;26.89;100.00;100503.66;5097638;28;20032;-72
2023/08/03 05:15:59;;;;;;;14.27;10.93;;;;;;;26.95;100.00;100504.97;5082742;28;20024;-73
2023/08/03 05:18:44;;;;;;;17.23;11.63;;;;;;;26.95;100.00;100505.81;5097395;28;20384;-73
2023/08/03 05:21:30;;;;;;;14.57;11.32;;;;;;;26.83;100.00;100504.22;5097136;28;20508;-73
2023/08/03 05:24:16;;;;;;;14.20;11.07;;;;;;;26.92;100.00;100505.22;5107740;28;20020;-74
2023/08/03 05:27:02;;;;;;;15.48;11.65;;;;;;;27.04;100.00;100518.44;5104834;28;20024;-74
2023/08/03 05:29:48;;;;;;;18.05;11.52;;;;;;;27.01;100.00;100516.03;5082106;28;20020;-72
2023/08/03 05:32:34;;;;;;;16.23;11.20;;;;;;;27.26;100.00;100520.97;5081616;28;20024;-74
2023/08/03 05:35:19;;;;;;;17.90;12.48;;;;;;;27.08;100.00;100529.78;5082630;28;20051;-72
2023/08/03 05:38:05;;;;;;;21.70;14.00;;;;;;;27.01;100.00;100526.78;5097509;28;20024;-73
2023/08/03 05:40:51;;;;;;;19.70;14.07;;;;;;;27.19;100.00;100530.53;5096349;28;20067;-73
2023/08/03 05:43:39;;;;;;;22.85;14.25;;;;;;;27.07;100.00;100531.63;5096811;28;20350;-72
2023/08/03 05:46:30;;;;;;;23.40;14.02;;;;;;;27.43;100.00;100523.00;5096813;28;20024;-73
2023/08/03 05:49:16;;;;;;;29.45;13.50;;;;;;;27.48;100.00;100531.50;5096709;28;20345;-71
2023/08/03 05:52:02;;;;;;;23.00;14.57;;;;;;;27.73;100.00;100532.84;5099374;28;20345;-72
2023/08/03 05:54:48;;;;;;;22.65;13.45;;;;;;;27.73;100.00;100535.53;5100443;28;20047;-72
2023/08/03 05:57:34;;;;;;;18.45;13.32;;;;;;;27.95;100.00;100537.09;5099422;28;20043;-72
2023/08/03 06:00:21;;;;;;;17.85;12.93;;;;;;;27.94;100.00;100536.28;5084917;28;20129;-72
2023/08/03 06:03:15;;;;;;;21.48;12.45;;;;;;;28.06;100.00;100537.84;5085646;28;20028;-73
2023/08/03 06:06:04;;;;;;;16.73;12.00;;;;;;;28.37;100.00;100536.66;5084860;28;20060;-74
2023/08/03 06:08:52;;;;;;;20.27;12.85;;;;;;;28.39;100.00;100544.59;5099012;28;20077;-72
2023/08/03 06:11:38;;;;;;;18.88;13.38;;;;;;;28.34;100.00;100546.88;5100214;28;20094;-72
2023/08/03 06:14:24;;;;;;;17.02;12.20;;;;;;;28.11;100.00;100549.03;5081109;28;20030;-74
2023/08/03 06:17:10;;;;;;;16.45;11.70;;;;;;;28.52;100.00;100551.44;5081144;28;20032;-74
2023/08/03 06:19:57;;;;;;;13.15;10.93;;;;;;;28.68;100.00;100540.91;5094082;28;20109;-74
2023/08/03 06:22:42;;;;;;;21.55;11.95;;;;;;;28.75;100.00;100547.41;5095237;28;20024;-73
2023/08/03 06:25:28;;;;;;;16.42;11.82;;;;;;;28.86;100.00;100549.09;5095863;28;20023;-73
2023/08/03 06:28:16;;;;;;;20.08;11.07;;;;;;;28.99;100.00;100553.16;5096377;28;20032;-72
2023/08/03 06:31:11;;;;;;;15.20;12.27;;;;;;;29.09;100.00;100551.28;5097210;28;20066;-74
2023/08/03 06:33:58;;;;;;;15.52;12.13;;;;;;;28.59;100.00;100549.00;5081029;28;20397;-73
2023/08/03 06:36:44;;;;;;;19.60;11.68;;;;;;;29.04;100.00;100547.34;5095133;28;20039;-74
2023/08/03 06:39:29;;;;;;;17.55;11.20;;;;;;;29.11;100.00;100546.63;5095835;28;20353;-73
2023/08/03 06:42:15;;;;;;;22.33;10.40;;;;;;;29.51;100.00;100552.50;5094999;28;20016;-73
2023/08/03 06:45:01;;;;;;;12.77;9.65;;;;;;;29.50;100.00;100553.50;5096301;28;20048;-74
2023/08/03 06:47:48;;;;;;;15.85;9.65;;;;;;;29.68;100.00;100556.25;5095288;28;20031;-72
2023/08/03 06:50:34;;;;;;;13.38;10.00;;;;;;;29.53;100.00;100552.38;5095876;28;20024;-73
2023/08/03 06:53:21;;;;;;;13.02;9.20;;;;;;;29.73;100.00;100551.28;5095160;28;20085;-73
2023/08/03 06:56:06;;;;;;;13.18;10.02;;;;;;;29.55;100.00;100545.81;5095233;28;20440;-73
2023/08/03 06:58:52;;;;;;;13.77;9.35;;;;;;;29.82;100.00;100543.06;5095026;28;20046;-73
2023/08/03 07:01:38;;;;;;;13.75;9.02;;;;;;;29.94;100.00;100546.41;5096141;28;20058;-73
2023/08/03 07:04:24;;;;;;;13.95;8.77;;;;;;;30.17;100.00;100540.41;5095090;28;20368;-72
2023/08/03 07:07:09;;;;;;;19.20;9.43;;;;;;;30.11;99.16;100541.03;5095385;28;20020;-73
2023/08/03 07:09:55;;;;;;;12.05;8.95;;;;;;;30.03;100.00;100538.25;5094810;28;20024;-73
2023/08/03 07:12:42;;;;;;;12.43;9.60;;;;;;;30.44;99.96;100537.59;5095798;28;20016;-72
2023/08/03 07:15:33;;;;;;;12.23;10.15;;;;;;;30.50;100.00;100544.25;5095862;28;20069;-73
2023/08/03 07:18:19;;;;;;;16.75;10.15;;;;;;;30.67;100.00;100544.22;5093382;28;20107;-74
2023/08/03 07:21:05;;;;;;;16.65;9.82;;;;;;;30.95;99.86;100553.03;5094504;28;20032;-74
2023/08/03 07:23:51;;;;;;;14.85;10.70;;;;;;;30.94;100.00;100546.75;5095344;28;20144;-73
2023/08/03 07:26:37;;;;;;;14.57;10.07;;;;;;;30.62;99.58;100549.22;5094918;28;20035;-74
2023/08/03 07:29:22;;;;;;;12.65;9.40;;;;;;;31.06;96.94;100555.47;5094814;28;20048;-74
2023/08/03 07:32:09;;;;;;;16.67;9.57;;;;;;;30.90;98.26;100553.50;5095437;28;20020;-72
2023/08/03 07:34:55;;;;;;;15.50;9.82;;;;;;;31.35;95.86;100558.69;5095857;28;20119;-73
2023/08/03 07:37:40;;;;;;;24.38;10.93;;;;;;;31.22;95.41;100558.25;5105205;28;20058;-73
2023/08/03 07:40:26;;;;;;;22.10;10.50;;;;;;;31.09;94.63;100555.97;5111148;28;20054;-73
2023/08/03 07:43:12;;;;;;;22.42;10.02;;;;;;;31.47;92.68;100553.81;5095415;28;20028;-74
2023/08/03 07:45:57;;;;;;;18.08;9.95;;;;;;;31.75;90.35;100558.81;5094774;28;20032;-74
2023/08/03 07:48:43;;;;;;;20.45;9.75;;;;;;;32.19;86.83;100548.56;5094890;28;20024;-74
2023/08/03 07:51:29;;;;;;;16.10;10.35;;;;;;;32.82;79.95;100546.88;5094276;28;20039;-74
2023/08/03 07:54:15;;;;;;;19.38;9.75;;;;;;;32.24;78.43;100552.47;5080178;28;20372;-74
2023/08/03 07:57:01;;;;;;;17.45;9.65;;;;;;;32.38;78.52;100543.66;5105181;28;20028;-73
2023/08/03 07:59:48;;;;;;;25.20;10.27;;;;;;;33.12;76.99;100541.53;5103369;28;20020;-74
2023/08/03 08:02:34;;;;;;;29.10;11.90;;;;;;;33.14;77.37;100544.91;5094496;28;20028;-74
2023/08/03 08:05:22;;;;;;;28.40;12.07;;;;;;;33.17;76.79;100543.72;5094192;28;20031;-73
2023/08/03 08:08:08;;;;;;;28.67;12.77;;;;;;;33.43;76.76;100544.34;5093752;28;20169;-73
2023/08/03 08:10:54;;;;;;;34.95;11.50;;;;;;;33.44;73.69;100546.88;5093856;28;20028;-75
2023/08/03 08:13:41;;;;;;;20.10;9.85;;;;;;;33.66;72.23;100537.06;5093891;28;20126;-73
2023/08/03 08:16:26;;;;;;;16.05;8.63;;;;;;;33.31;68.68;100543.00;5094573;28;20496;-74
2023/08/03 08:19:12;;;;;;;12.70;8.10;;;;;;;33.51;65.92;100552.44;5093959;28;20105;-74
2023/08/03 08:21:58;;;;;;;9.82;7.35;;;;;;;33.54;65.57;100549.34;5093931;28;20081;-73
2023/08/03 08:24:44;;;;;;;10.13;7.05;;;;;;;33.97;62.84;100536.03;5080094;28;20039;-73
2023/08/03 08:27:31;;;;;;;10.48;7.15;;;;;;;33.94;63.17;100539.13;5080163;28;20087;-74
2023/08/03 08:30:16;;;;;;;9.45;7.28;;;;;;;34.01;63.03;100544.69;5094633;28;20024;-74
2023/08/03 08:33:02;;;;;;;8.57;7.25;;;;;;;35.01;60.55;100532.41;5094115;28;20441;-74
2023/08/03 08:35:49;;;;;;;12.25;7.45;;;;;;;34.94;59.96;100534.19;5094160;28;20062;-74
2023/08/03 08:38:34;;;;;;;9.15;7.20;;;;;;;34.65;60.63;100533.28;5094271;28;20460;-74
2023/08/03 08:41:20;;;;;;;11.07;6.78;;;;;;;34.99;59.66;100533.59;5094452;28;20341;-74
2023/08/03 08:44:06;;;;;;;8.02;6.68;;;;;;;35.04;57.71;100528.47;5096497;28;20032;-74
2023/08/03 08:46:52;;;;;;;10.88;7.47;;;;;;;34.98;58.02;100534.66;5098003;28;20065;-74
2023/08/03 08:49:38;;;;;;;11.57;7.47;;;;;;;34.55;60.77;100532.72;5098171;28;20111;-74
2023/08/03 08:52:26;;;;;;;12.23;7.60;;;;;;;34.94;60.75;100534.19;5084117;28;20502;-74
2023/08/03 08:55:15;;;;;;;9.82;7.10;;;;;;;35.46;57.17;100539.53;5083591;28;20440;-74
2023/08/03 08:58:01;;;;;;;11.65;7.65;;;;;;;35.15;59.05;100537.00;5097646;28;20043;-73
2023/08/03 09:00:47;;;;;;;15.43;8.23;;;;;;;35.47;59.21;100545.84;5097838;28;20019;-74
2023/08/03 09:03:51;;;;;;;10.90;7.55;;;;;;;35.40;59.06;100540.31;5097628;28;20070;-73
2023/08/03 09:06:44;;;;;;;12.82;7.85;;;;;;;35.26;60.35;100535.66;5081930;28;20103;-73
2023/08/03 09:09:36;;;;;;;11.70;8.13;;;;;;;35.45;60.16;100542.44;5097514;28;20028;-74
2023/08/03 09:12:26;;;;;;;10.52;7.35;;;;;;;35.91;58.43;100536.50;5097684;28;20036;-73
2023/08/03 09:15:12;;;;;;;11.23;8.38;;;;;;;35.73;59.16;100530.63;5098647;28;20020;-73
2023/08/03 09:18:04;;;;;;;20.85;9.38;;;;;;;35.80;60.98;100542.50;5097310;28;20440;-73
2023/08/03 09:20:50;;;;;;;12.45;8.65;;;;;;;36.35;57.38;100534.47;5097188;28;20411;-74
2023/08/03 09:23:36;;;;;;;11.07;8.30;;;;;;;36.09;58.25;100531.47;5097152;28;20035;-74
2023/08/03 09:26:23;;;;;;;11.07;8.23;;;;;;;-140.66;100.00;55571.53;5097664;28;20128;-74
2023/08/03 09:29:16;;;;;;;9.52;8.30;;;;;;;-140.66;100.00;55571.53;5084130;28;20034;-74
2023/08/03 09:32:06;;;;;;;9.85;8.50;;;;;;;35.72;58.38;100523.50;5096893;28;20364;-73
2023/08/03 09:34:52;;;;;;;15.60;8.38;;;;;;;35.99;58.01;100525.47;5097383;28;20028;-73
2023/08/03 09:37:38;;;;;;;17.80;8.60;;;;;;;36.03;57.32;100515.84;5097800;28;20089;-74
2023/08/03 09:40:24;;;;;;;19.88;7.95;;;;;;;36.10;56.92;100521.38;5096630;28;20031;-74
2023/08/03 09:43:12;;;;;;;10.15;8.13;;;;;;;36.44;54.97;100513.34;5096137;28;20028;-74
2023/08/03 09:45:58;;;;;;;12.90;8.48;;;;;;;36.19;54.90;100525.69;5096195;28;20082;-74
2023/08/03 09:48:44;;;;;;;10.32;7.97;;;;;;;36.19;55.44;100512.88;5096734;28;20437;-73
2023/08/03 09:51:31;;;;;;;9.43;8.10;;;;;;;35.99;56.25;100527.38;5097568;28;20024;-74
2023/08/03 09:54:37;;;;;;;11.40;8.18;;;;;;;36.41;54.36;100514.56;5096306;28;20028;-74
2023/08/03 09:57:24;;;;;;;8.50;7.38;;;;;;;36.16;54.39;100513.25;5096872;28;20048;-74
2023/08/03 10:00:12;;;;;;;11.10;7.60;;;;;;;36.31;56.24;100505.88;5096556;28;20039;-74
2023/08/03 10:03:06;;;;;;;11.65;7.65;;;;;;;36.21;54.02;100510.81;5097159;28;20086;-75
2023/08/03 10:06:02;;;;;;;13.10;8.00;;;;;;;36.01;54.93;100511.66;5096416;28;20418;-74
2023/08/03 10:08:51;;;;;;;9.77;7.63;;;;;;;35.64;57.31;100506.41;5082363;28;20424;-74
2023/08/03 10:11:42;;;;;;;10.52;7.90;;;;;;;35.65;58.06;100506.22;5082650;28;20046;-74
2023/08/03 10:14:32;;;;;;;10.50;8.20;;;;;;;35.91;57.88;100495.59;5096148;28;20020;-75
2023/08/03 10:17:19;;;;;;;11.05;8.07;;;;;;;35.79;57.86;100502.59;5082384;28;20437;-74
2023/08/03 10:20:07;;;;;;;11.32;8.52;;;;;;;36.00;56.08;100490.88;5095849;28;20087;-74
2023/08/03 10:23:21;;;;;;;14.90;8.00;;;;;;;35.84;57.81;100486.53;5081628;28;20024;-74
2023/08/03 10:26:07;;;;;;;13.07;7.85;;;;;;;35.68;58.75;100483.16;5096319;28;20177;-74
2023/08/03 10:28:53;;;;;;;14.30;8.07;;;;;;;36.10;57.87;100475.84;5080924;28;20028;-74
2023/08/03 10:31:59;;;;;;;11.05;7.68;;;;;;;36.08;58.04;100480.66;5095951;28;20114;-74
2023/08/03 10:34:44;;;;;;;12.65;7.75;;;;;;;35.88;58.98;100476.91;5103014;28;20007;-73
2023/08/03 10:37:30;;;;;;;10.50;7.30;;;;;;;35.66;58.53;100475.16;5110124;28;20436;-74
2023/08/03 10:40:22;;;;;;;11.60;8.45;;;;;;;36.28;57.39;100472.69;5096016;28;20028;-75
2023/08/03 10:43:08;;;;;;;11.80;7.82;;;;;;;36.00;58.13;100464.41;5096126;28;20039;-74
2023/08/03 10:45:54;;;;;;;12.65;8.20;;;;;;;36.28;56.43;100465.31;5096912;28;20136;-74
2023/08/03 10:48:41;;;;;;;12.55;8.55;;;;;;;36.11;57.16;100463.88;5096878;28;20016;-73
2023/08/03 10:51:27;;;;;;;11.13;8.32;;;;;;;36.07;58.55;100461.78;5096794;28;20045;-75
2023/08/03 10:54:13;;;;;;;9.45;7.57;;;;;;;36.43;56.23;100459.78;5103703;28;20004;-74
2023/08/03 10:57:10;;;;;;;12.65;7.95;;;;;;;36.23;56.80;100456.06;5108785;28;20024;-74
2023/08/03 10:59:57;;;;;;;10.10;7.80;;;;;;;36.23;56.44;100451.44;5095363;28;20047;-74
2023/08/03 11:02:43;;;;;;;11.52;8.10;;;;;;;36.54;55.74;100454.63;5096417;28;20423;-75
2023/08/03 11:05:30;;;;;;;12.30;7.55;;;;;;;36.29;54.72;100445.19;5095472;28;20089;-74
2023/08/03 11:08:16;;;;;;;13.63;8.18;;;;;;;36.55;54.54;100452.69;5096404;28;20032;-75
2023/08/03 11:11:02;;;;;;;19.60;8.35;;;;;;;36.42;56.39;100437.09;5094994;28;20016;-74
2023/08/03 11:13:49;;;;;;;12.55;8.07;;;;;;;36.59;54.51;100427.53;5095753;28;20107;-74
2023/08/03 11:16:35;;;;;;;10.63;8.30;;;;;;;36.74;54.33;100432.91;5095189;28;20164;-74
2023/08/03 11:19:23;;;;;;;10.15;7.63;;;;;;;37.18;51.46;100434.22;5094776;28;20054;-74
2023/08/03 11:22:11;;;;;;;12.48;8.65;;;;;;;37.17;51.07;100434.41;5080815;28;20174;-75
2023/08/03 11:25:04;;;;;;;18.95;7.72;;;;;;;37.42;51.93;100433.66;5080397;28;20345;-75
2023/08/03 11:27:51;;;;;;;17.23;7.90;;;;;;;37.85;50.21;100428.72;5095143;28;20473;-74
2023/08/03 11:30:44;;;;;;;12.73;7.60;;;;;;;37.64;50.97;100423.44;5080283;28;20040;-75
2023/08/03 11:33:36;;;;;;;10.43;8.10;;;;;;;38.11;49.36;100418.66;5094846;28;20023;-75
2023/08/03 11:36:23;;;;;;;11.38;8.15;;;;;;;38.42;47.13;100418.84;5094833;28;20028;-74
2023/08/03 11:39:08;;;;;;;11.95;7.72;;;;;;;38.55;47.04;100415.25;5095625;28;20458;-75
2023/08/03 11:41:55;;;;;;;10.85;7.50;;;;;;;38.07;47.44;100409.19;5081093;28;20056;-74
2023/08/03 11:44:45;;;;;;;11.52;7.55;;;;;;;37.51;48.42;100409.69;5094149;28;20506;-73
2023/08/03 11:48:00;;;;;;;9.63;7.90;;;;;;;37.86;47.39;100409.34;5094664;28;20024;-74
2023/08/03 11:50:46;;;;;;;11.25;7.43;;;;;;;37.89;47.52;100408.91;5087596;28;20444;-74
2023/08/03 11:53:33;;;;;;;9.23;7.78;;;;;;;38.20;47.51;100403.69;5094582;28;20028;-74
2023/08/03 11:56:19;;;;;;;15.40;7.63;;;;;;;38.25;46.18;100394.84;5094781;28;20047;-74
2023/08/03 11:59:10;;;;;;;10.32;7.82;;;;;;;38.29;45.55;100382.41;5079629;28;20020;-73
2023/08/03 12:01:56;;;;;;;10.43;7.43;;;;;;;38.25;46.46;100392.09;5094334;28;20020;-74
2023/08/03 12:04:42;;;;;;;10.55;7.70;;;;;;;37.81;46.99;100381.75;5081143;28;20020;-73
2023/08/03 12:07:28;;;;;;;10.20;7.47;;;;;;;38.18;45.84;100386.66;5079735;28;20023;-73
2023/08/03 12:10:14;;;;;;;9.93;8.27;;;;;;;38.61;45.23;100395.22;5094608;28;20028;-75
2023/08/03 12:13:00;;;;;;;10.10;7.45;;;;;;;38.28;44.99;100387.03;5080234;28;20411;-74
2023/08/03 12:15:46;;;;;;;17.77;8.05;;;;;;;38.36;45.95;100383.22;5080280;28;20097;-74
2023/08/03 12:18:32;;;;;;;11.45;7.55;;;;;;;38.78;43.75;100382.72;5095318;28;20044;-74
2023/08/03 12:21:18;;;;;;;11.93;8.00;;;;;;;38.78;44.50;100383.53;5098387;28;20020;-74
2023/08/03 12:24:05;;;;;;;21.42;8.43;;;;;;;38.78;43.47;100377.25;5085066;28;20054;-74
2023/08/03 12:26:51;;;;;;;9.90;7.63;;;;;;;38.74;42.62;100371.34;5084477;28;20376;-74
2023/08/03 12:29:37;;;;;;;8.27;7.38;;;;;;;38.71;41.94;100365.47;5098014;28;20333;-74
2023/08/03 12:32:23;;;;;;;10.95;7.65;;;;;;;38.46;41.94;100365.28;5099409;28;20032;-74
2023/08/03 12:35:10;;;;;;;8.00;7.18;;;;;;;38.15;43.38;100364.31;5098951;28;20058;-74
2023/08/03 12:37:56;;;;;;;13.00;7.47;;;;;;;38.47;43.23;100360.69;5098756;28;20115;-74
2023/08/03 12:40:41;;;;;;;10.07;7.55;;;;;;;38.21;43.78;100364.31;5097918;28;20028;-74